sensor_id;sensor_type;location;lat;lon;timestamp;P1;durP1;ratioP1;P2;durP2;ratioP2
26536;SDS011;14204;51.262;5.488;2022-09-29T00:00:36;16.67;;;13.60;;
26536;SDS011;14204;51.262;5.488;2022-09-29T00:03:03;18.17;;;14.80;;
26536;SDS011;14204;51.262;5.488;2022-09-29T00:05:29;19.08;;;15.40;;
26536;SDS011;14204;51.262;5.488;2022-09-29T00:07:54;21.75;;;14.88;;
26536;SDS011;14204;51.262;5.488;2022-09-29T00:10:20;20.00;;;15.10;;
26536;SDS011;14204;51.262;5.488;2022-09-29T00:12:46;20.02;;;13.95;;
26536;SDS011;14204;51.262;5.488;2022-09-29T00:15:12;19.35;;;14.73;;
26536;SDS011;14204;51.262;5.488;2022-09-29T00:17:38;22.13;;;15.55;;
26536;SDS011;14204;51.262;5.488;2022-09-29T00:20:04;17.52;;;14.95;;
26536;SDS011;14204;51.262;5.488;2022-09-29T00:22:31;23.67;;;14.88;;
26536;SDS011;14204;51.262;5.488;2022-09-29T00:24:57;19.92;;;15.38;;
26536;SDS011;14204;51.262;5.488;2022-09-29T00:27:23;17.15;;;14.63;;
26536;SDS011;14204;51.262;5.488;2022-09-29T00:29:48;21.80;;;16.20;;
26536;SDS011;14204;51.262;5.488;2022-09-29T00:32:14;19.83;;;14.70;;
26536;SDS011;14204;51.262;5.488;2022-09-29T00:34:40;19.60;;;15.57;;
26536;SDS011;14204;51.262;5.488;2022-09-29T00:37:05;20.80;;;15.52;;
26536;SDS011;14204;51.262;5.488;2022-09-29T00:39:31;22.45;;;16.23;;
26536;SDS011;14204;51.262;5.488;2022-09-29T00:41:57;22.70;;;14.90;;
26536;SDS011;14204;51.262;5.488;2022-09-29T00:47:26;19.42;;;12.90;;
26536;SDS011;14204;51.262;5.488;2022-09-29T00:49:58;21.02;;;15.32;;
26536;SDS011;14204;51.262;5.488;2022-09-29T00:52:37;17.85;;;15.32;;
26536;SDS011;14204;51.262;5.488;2022-09-29T00:55:11;22.35;;;17.38;;
26536;SDS011;14204;51.262;5.488;2022-09-29T00:57:44;20.13;;;15.57;;
26536;SDS011;14204;51.262;5.488;2022-09-29T01:00:17;20.77;;;16.40;;
26536;SDS011;14204;51.262;5.488;2022-09-29T01:02:44;24.10;;;15.68;;
26536;SDS011;14204;51.262;5.488;2022-09-29T01:05:15;21.02;;;16.00;;
26536;SDS011;14204;51.262;5.488;2022-09-29T01:07:45;19.42;;;14.63;;
26536;SDS011;14204;51.262;5.488;2022-09-29T01:10:12;22.90;;;15.75;;
26536;SDS011;14204;51.262;5.488;2022-09-29T01:12:41;17.92;;;13.70;;
26536;SDS011;14204;51.262;5.488;2022-09-29T01:15:09;19.88;;;15.73;;
26536;SDS011;14204;51.262;5.488;2022-09-29T01:17:36;21.02;;;14.15;;
26536;SDS011;14204;51.262;5.488;2022-09-29T01:24:54;20.05;;;14.20;;
26536;SDS011;14204;51.262;5.488;2022-09-29T01:33:15;20.00;;;15.85;;
26536;SDS011;14204;51.262;5.488;2022-09-29T01:36:05;18.67;;;14.10;;
26536;SDS011;14204;51.262;5.488;2022-09-29T01:41:45;23.70;;;15.65;;
26536;SDS011;14204;51.262;5.488;2022-09-29T01:44:23;18.98;;;15.57;;
26536;SDS011;14204;51.262;5.488;2022-09-29T01:46:56;18.98;;;13.90;;
26536;SDS011;14204;51.262;5.488;2022-09-29T01:49:51;24.60;;;15.75;;
26536;SDS011;14204;51.262;5.488;2022-09-29T01:55:04;25.23;;;16.58;;
26536;SDS011;14204;51.262;5.488;2022-09-29T02:00:06;24.65;;;16.90;;
26536;SDS011;14204;51.262;5.488;2022-09-29T02:02:36;20.30;;;15.10;;
26536;SDS011;14204;51.262;5.488;2022-09-29T02:05:09;22.17;;;14.93;;
26536;SDS011;14204;51.262;5.488;2022-09-29T02:08:00;21.77;;;14.60;;
26536;SDS011;14204;51.262;5.488;2022-09-29T02:10:32;21.55;;;15.13;;
26536;SDS011;14204;51.262;5.488;2022-09-29T02:13:04;22.00;;;16.00;;
26536;SDS011;14204;51.262;5.488;2022-09-29T02:15:34;20.60;;;15.38;;
26536;SDS011;14204;51.262;5.488;2022-09-29T02:18:09;23.98;;;15.57;;
26536;SDS011;14204;51.262;5.488;2022-09-29T02:20:39;22.48;;;16.35;;
26536;SDS011;14204;51.262;5.488;2022-09-29T02:23:05;24.65;;;16.10;;
26536;SDS011;14204;51.262;5.488;2022-09-29T02:25:31;24.13;;;15.35;;
26536;SDS011;14204;51.262;5.488;2022-09-29T02:28:00;20.10;;;16.17;;
26536;SDS011;14204;51.262;5.488;2022-09-29T02:30:26;21.88;;;16.75;;
26536;SDS011;14204;51.262;5.488;2022-09-29T02:32:52;21.05;;;16.38;;
26536;SDS011;14204;51.262;5.488;2022-09-29T02:35:17;23.23;;;17.88;;
26536;SDS011;14204;51.262;5.488;2022-09-29T02:51:17;22.05;;;18.60;;
26536;SDS011;14204;51.262;5.488;2022-09-29T02:56:54;22.95;;;17.65;;
26536;SDS011;14204;51.262;5.488;2022-09-29T02:59:34;28.33;;;19.10;;
26536;SDS011;14204;51.262;5.488;2022-09-29T03:02:07;22.42;;;17.75;;
26536;SDS011;14204;51.262;5.488;2022-09-29T03:04:32;26.38;;;18.40;;
26536;SDS011;14204;51.262;5.488;2022-09-29T03:06:58;22.70;;;17.50;;
26536;SDS011;14204;51.262;5.488;2022-09-29T03:09:24;21.88;;;16.90;;
26536;SDS011;14204;51.262;5.488;2022-09-29T03:11:49;23.17;;;16.67;;
26536;SDS011;14204;51.262;5.488;2022-09-29T03:14:15;23.15;;;17.30;;
26536;SDS011;14204;51.262;5.488;2022-09-29T03:16:41;22.33;;;16.50;;
26536;SDS011;14204;51.262;5.488;2022-09-29T03:19:07;21.13;;;15.38;;
26536;SDS011;14204;51.262;5.488;2022-09-29T03:21:33;20.90;;;15.75;;
26536;SDS011;14204;51.262;5.488;2022-09-29T03:23:59;27.17;;;15.73;;
26536;SDS011;14204;51.262;5.488;2022-09-29T03:26:25;24.33;;;14.25;;
26536;SDS011;14204;51.262;5.488;2022-09-29T03:28:51;22.60;;;15.77;;
26536;SDS011;14204;51.262;5.488;2022-09-29T03:31:17;19.17;;;13.98;;
26536;SDS011;14204;51.262;5.488;2022-09-29T03:33:44;23.55;;;13.25;;
26536;SDS011;14204;51.262;5.488;2022-09-29T03:36:10;19.92;;;14.98;;
26536;SDS011;14204;51.262;5.488;2022-09-29T03:38:36;22.13;;;14.18;;
26536;SDS011;14204;51.262;5.488;2022-09-29T03:41:02;27.05;;;15.27;;
26536;SDS011;14204;51.262;5.488;2022-09-29T03:43:29;24.42;;;16.05;;
26536;SDS011;14204;51.262;5.488;2022-09-29T03:45:55;22.67;;;16.08;;
26536;SDS011;14204;51.262;5.488;2022-09-29T03:48:21;25.60;;;15.27;;
26536;SDS011;14204;51.262;5.488;2022-09-29T03:50:48;24.08;;;15.57;;
26536;SDS011;14204;51.262;5.488;2022-09-29T03:53:15;18.40;;;15.18;;
26536;SDS011;14204;51.262;5.488;2022-09-29T03:55:45;23.20;;;15.07;;
26536;SDS011;14204;51.262;5.488;2022-09-29T03:58:11;24.88;;;14.65;;
26536;SDS011;14204;51.262;5.488;2022-09-29T04:00:37;21.67;;;14.57;;
26536;SDS011;14204;51.262;5.488;2022-09-29T04:03:03;21.80;;;14.77;;
26536;SDS011;14204;51.262;5.488;2022-09-29T04:05:29;18.08;;;14.43;;
26536;SDS011;14204;51.262;5.488;2022-09-29T04:07:54;23.60;;;14.25;;
26536;SDS011;14204;51.262;5.488;2022-09-29T04:10:20;18.83;;;14.95;;
26536;SDS011;14204;51.262;5.488;2022-09-29T04:12:46;19.20;;;14.02;;
26536;SDS011;14204;51.262;5.488;2022-09-29T04:15:13;22.15;;;13.82;;
26536;SDS011;14204;51.262;5.488;2022-09-29T04:17:38;19.08;;;14.95;;
26536;SDS011;14204;51.262;5.488;2022-09-29T04:20:04;20.38;;;14.57;;
26536;SDS011;14204;51.262;5.488;2022-09-29T04:22:31;22.55;;;14.15;;
26536;SDS011;14204;51.262;5.488;2022-09-29T04:24:57;18.02;;;14.68;;
26536;SDS011;14204;51.262;5.488;2022-09-29T04:27:23;21.55;;;15.18;;
26536;SDS011;14204;51.262;5.488;2022-09-29T04:29:49;20.55;;;14.23;;
26536;SDS011;14204;51.262;5.488;2022-09-29T04:32:15;19.65;;;13.95;;
26536;SDS011;14204;51.262;5.488;2022-09-29T04:34:41;18.77;;;13.48;;
26536;SDS011;14204;51.262;5.488;2022-09-29T04:37:07;19.20;;;13.63;;
26536;SDS011;14204;51.262;5.488;2022-09-29T04:39:36;23.17;;;14.05;;
26536;SDS011;14204;51.262;5.488;2022-09-29T04:42:02;20.52;;;14.65;;
26536;SDS011;14204;51.262;5.488;2022-09-29T04:44:28;22.35;;;14.52;;
26536;SDS011;14204;51.262;5.488;2022-09-29T04:46:53;22.42;;;14.00;;
26536;SDS011;14204;51.262;5.488;2022-09-29T04:49:19;21.55;;;14.43;;
26536;SDS011;14204;51.262;5.488;2022-09-29T04:51:46;24.35;;;14.23;;
26536;SDS011;14204;51.262;5.488;2022-09-29T04:54:11;17.60;;;14.07;;
26536;SDS011;14204;51.262;5.488;2022-09-29T04:56:37;18.35;;;13.13;;
26536;SDS011;14204;51.262;5.488;2022-09-29T04:59:03;20.77;;;14.52;;
26536;SDS011;14204;51.262;5.488;2022-09-29T05:01:28;20.20;;;14.48;;
26536;SDS011;14204;51.262;5.488;2022-09-29T05:03:54;19.50;;;13.90;;
26536;SDS011;14204;51.262;5.488;2022-09-29T05:06:20;18.05;;;14.07;;
26536;SDS011;14204;51.262;5.488;2022-09-29T05:08:46;21.70;;;15.23;;
26536;SDS011;14204;51.262;5.488;2022-09-29T05:11:12;22.20;;;13.85;;
26536;SDS011;14204;51.262;5.488;2022-09-29T05:13:37;18.55;;;14.77;;
26536;SDS011;14204;51.262;5.488;2022-09-29T05:16:03;26.35;;;13.70;;
26536;SDS011;14204;51.262;5.488;2022-09-29T05:18:29;21.83;;;13.15;;
26536;SDS011;14204;51.262;5.488;2022-09-29T05:20:55;21.60;;;14.27;;
26536;SDS011;14204;51.262;5.488;2022-09-29T05:23:27;19.45;;;14.15;;
26536;SDS011;14204;51.262;5.488;2022-09-29T05:25:53;25.52;;;15.73;;
26536;SDS011;14204;51.262;5.488;2022-09-29T05:28:19;22.95;;;14.68;;
26536;SDS011;14204;51.262;5.488;2022-09-29T05:30:44;24.90;;;14.40;;
26536;SDS011;14204;51.262;5.488;2022-09-29T05:33:10;21.90;;;14.35;;
26536;SDS011;14204;51.262;5.488;2022-09-29T05:35:35;25.02;;;16.00;;
26536;SDS011;14204;51.262;5.488;2022-09-29T05:38:01;21.02;;;15.65;;
26536;SDS011;14204;51.262;5.488;2022-09-29T05:40:27;23.20;;;15.57;;
26536;SDS011;14204;51.262;5.488;2022-09-29T05:42:52;20.02;;;14.27;;
26536;SDS011;14204;51.262;5.488;2022-09-29T05:45:18;18.10;;;14.20;;
26536;SDS011;14204;51.262;5.488;2022-09-29T05:47:44;22.13;;;14.95;;
26536;SDS011;14204;51.262;5.488;2022-09-29T05:50:12;24.30;;;13.63;;
26536;SDS011;14204;51.262;5.488;2022-09-29T05:52:38;16.63;;;12.85;;
26536;SDS011;14204;51.262;5.488;2022-09-29T05:55:04;22.58;;;13.52;;
26536;SDS011;14204;51.262;5.488;2022-09-29T05:57:33;22.75;;;13.50;;
26536;SDS011;14204;51.262;5.488;2022-09-29T05:59:59;25.40;;;15.18;;
26536;SDS011;14204;51.262;5.488;2022-09-29T06:02:25;19.70;;;14.35;;
26536;SDS011;14204;51.262;5.488;2022-09-29T06:04:51;25.05;;;14.85;;
26536;SDS011;14204;51.262;5.488;2022-09-29T06:07:17;24.25;;;16.30;;
26536;SDS011;14204;51.262;5.488;2022-09-29T06:09:42;27.10;;;16.27;;
26536;SDS011;14204;51.262;5.488;2022-09-29T06:12:08;25.58;;;15.57;;
26536;SDS011;14204;51.262;5.488;2022-09-29T06:14:33;25.23;;;17.35;;
26536;SDS011;14204;51.262;5.488;2022-09-29T06:16:59;22.48;;;15.52;;
26536;SDS011;14204;51.262;5.488;2022-09-29T06:19:24;21.00;;;15.90;;
26536;SDS011;14204;51.262;5.488;2022-09-29T06:21:50;22.58;;;16.73;;
26536;SDS011;14204;51.262;5.488;2022-09-29T06:24:15;25.27;;;16.92;;
26536;SDS011;14204;51.262;5.488;2022-09-29T06:26:41;28.17;;;16.38;;
26536;SDS011;14204;51.262;5.488;2022-09-29T06:29:07;21.08;;;15.93;;
26536;SDS011;14204;51.262;5.488;2022-09-29T06:31:32;27.65;;;17.73;;
26536;SDS011;14204;51.262;5.488;2022-09-29T06:33:58;31.08;;;17.58;;
26536;SDS011;14204;51.262;5.488;2022-09-29T06:36:30;28.75;;;17.92;;
26536;SDS011;14204;51.262;5.488;2022-09-29T06:39:19;35.72;;;22.25;;
26536;SDS011;14204;51.262;5.488;2022-09-29T06:41:45;37.50;;;21.15;;
26536;SDS011;14204;51.262;5.488;2022-09-29T06:44:20;26.13;;;17.80;;
26536;SDS011;14204;51.262;5.488;2022-09-29T06:46:48;26.13;;;18.17;;
26536;SDS011;14204;51.262;5.488;2022-09-29T06:49:15;26.25;;;17.33;;
26536;SDS011;14204;51.262;5.488;2022-09-29T06:51:41;23.10;;;17.17;;
26536;SDS011;14204;51.262;5.488;2022-09-29T06:54:08;29.02;;;19.05;;
26536;SDS011;14204;51.262;5.488;2022-09-29T06:56:47;29.60;;;19.35;;
26536;SDS011;14204;51.262;5.488;2022-09-29T06:59:14;29.90;;;19.25;;
26536;SDS011;14204;51.262;5.488;2022-09-29T07:01:40;30.83;;;19.17;;
26536;SDS011;14204;51.262;5.488;2022-09-29T07:04:05;33.95;;;19.92;;
26536;SDS011;14204;51.262;5.488;2022-09-29T07:06:31;27.85;;;18.33;;
26536;SDS011;14204;51.262;5.488;2022-09-29T07:08:57;28.45;;;17.75;;
26536;SDS011;14204;51.262;5.488;2022-09-29T07:11:23;39.78;;;21.02;;
26536;SDS011;14204;51.262;5.488;2022-09-29T07:13:50;32.72;;;20.40;;
26536;SDS011;14204;51.262;5.488;2022-09-29T07:16:16;31.77;;;20.63;;
26536;SDS011;14204;51.262;5.488;2022-09-29T07:18:42;39.45;;;21.05;;
26536;SDS011;14204;51.262;5.488;2022-09-29T07:21:10;35.90;;;20.67;;
26536;SDS011;14204;51.262;5.488;2022-09-29T07:23:39;34.95;;;20.17;;
26536;SDS011;14204;51.262;5.488;2022-09-29T07:26:06;44.15;;;23.23;;
26536;SDS011;14204;51.262;5.488;2022-09-29T07:28:32;35.83;;;20.58;;
26536;SDS011;14204;51.262;5.488;2022-09-29T07:30:59;31.75;;;19.50;;
26536;SDS011;14204;51.262;5.488;2022-09-29T07:33:25;28.13;;;16.48;;
26536;SDS011;14204;51.262;5.488;2022-09-29T07:35:52;35.63;;;22.67;;
26536;SDS011;14204;51.262;5.488;2022-09-29T07:38:18;29.20;;;17.65;;
26536;SDS011;14204;51.262;5.488;2022-09-29T07:40:44;31.25;;;17.45;;
26536;SDS011;14204;51.262;5.488;2022-09-29T07:43:09;32.42;;;18.17;;
26536;SDS011;14204;51.262;5.488;2022-09-29T07:45:35;23.55;;;16.50;;
26536;SDS011;14204;51.262;5.488;2022-09-29T07:48:00;39.47;;;20.85;;
26536;SDS011;14204;51.262;5.488;2022-09-29T07:50:26;26.50;;;16.05;;
26536;SDS011;14204;51.262;5.488;2022-09-29T07:52:51;34.15;;;18.75;;
26536;SDS011;14204;51.262;5.488;2022-09-29T07:55:17;37.65;;;22.05;;
26536;SDS011;14204;51.262;5.488;2022-09-29T07:57:45;33.17;;;21.65;;
26536;SDS011;14204;51.262;5.488;2022-09-29T08:00:12;31.40;;;18.00;;
26536;SDS011;14204;51.262;5.488;2022-09-29T08:02:38;28.48;;;16.95;;
26536;SDS011;14204;51.262;5.488;2022-09-29T08:05:04;25.35;;;15.05;;
26536;SDS011;14204;51.262;5.488;2022-09-29T08:07:30;36.97;;;17.10;;
26536;SDS011;14204;51.262;5.488;2022-09-29T08:09:55;30.40;;;17.85;;
26536;SDS011;14204;51.262;5.488;2022-09-29T08:12:21;34.58;;;21.08;;
26536;SDS011;14204;51.262;5.488;2022-09-29T08:14:46;28.33;;;14.43;;
26536;SDS011;14204;51.262;5.488;2022-09-29T08:17:13;22.63;;;14.90;;
26536;SDS011;14204;51.262;5.488;2022-09-29T08:19:39;24.05;;;13.80;;
26536;SDS011;14204;51.262;5.488;2022-09-29T08:22:04;22.60;;;14.80;;
26536;SDS011;14204;51.262;5.488;2022-09-29T08:24:30;20.08;;;13.75;;
26536;SDS011;14204;51.262;5.488;2022-09-29T08:26:56;22.83;;;12.77;;
26536;SDS011;14204;51.262;5.488;2022-09-29T08:29:22;24.20;;;13.98;;
26536;SDS011;14204;51.262;5.488;2022-09-29T08:31:47;17.38;;;10.50;;
26536;SDS011;14204;51.262;5.488;2022-09-29T08:34:13;15.15;;;11.57;;
26536;SDS011;14204;51.262;5.488;2022-09-29T08:36:39;17.75;;;10.48;;
26536;SDS011;14204;51.262;5.488;2022-09-29T08:39:05;15.85;;;11.00;;
26536;SDS011;14204;51.262;5.488;2022-09-29T08:46:39;17.80;;;10.27;;
26536;SDS011;14204;51.262;5.488;2022-09-29T08:49:15;23.48;;;11.35;;
26536;SDS011;14204;51.262;5.488;2022-09-29T08:51:54;20.33;;;11.52;;
26536;SDS011;14204;51.262;5.488;2022-09-29T08:54:38;19.33;;;11.98;;
26536;SDS011;14204;51.262;5.488;2022-09-29T08:57:10;20.65;;;11.90;;
26536;SDS011;14204;51.262;5.488;2022-09-29T08:59:41;21.73;;;12.00;;
26536;SDS011;14204;51.262;5.488;2022-09-29T09:12:47;18.65;;;11.48;;
26536;SDS011;14204;51.262;5.488;2022-09-29T09:23:40;16.30;;;9.88;;
26536;SDS011;14204;51.262;5.488;2022-09-29T09:26:18;16.60;;;11.15;;
26536;SDS011;14204;51.262;5.488;2022-09-29T09:32:14;14.18;;;9.43;;
26536;SDS011;14204;51.262;5.488;2022-09-29T09:34:54;14.13;;;9.02;;
26536;SDS011;14204;51.262;5.488;2022-09-29T09:37:31;18.77;;;8.90;;
26536;SDS011;14204;51.262;5.488;2022-09-29T09:40:03;13.45;;;8.25;;
26536;SDS011;14204;51.262;5.488;2022-09-29T09:42:39;15.98;;;9.30;;
26536;SDS011;14204;51.262;5.488;2022-09-29T09:45:13;13.50;;;8.80;;
26536;SDS011;14204;51.262;5.488;2022-09-29T09:47:41;13.23;;;7.77;;
26536;SDS011;14204;51.262;5.488;2022-09-29T09:50:16;14.65;;;8.05;;
26536;SDS011;14204;51.262;5.488;2022-09-29T09:52:45;14.35;;;8.43;;
26536;SDS011;14204;51.262;5.488;2022-09-29T09:55:16;14.93;;;8.02;;
26536;SDS011;14204;51.262;5.488;2022-09-29T10:01:02;12.65;;;7.22;;
26536;SDS011;14204;51.262;5.488;2022-09-29T10:03:31;14.60;;;8.57;;
26536;SDS011;14204;51.262;5.488;2022-09-29T10:05:57;14.63;;;7.88;;
26536;SDS011;14204;51.262;5.488;2022-09-29T10:10:53;15.63;;;7.75;;
26536;SDS011;14204;51.262;5.488;2022-09-29T10:13:20;14.02;;;8.52;;
26536;SDS011;14204;51.262;5.488;2022-09-29T10:15:57;16.00;;;9.55;;
26536;SDS011;14204;51.262;5.488;2022-09-29T10:18:47;16.55;;;8.50;;
26536;SDS011;14204;51.262;5.488;2022-09-29T10:24:20;16.08;;;8.32;;
26536;SDS011;14204;51.262;5.488;2022-09-29T10:26:55;14.35;;;8.75;;
26536;SDS011;14204;51.262;5.488;2022-09-29T10:32:09;14.88;;;8.98;;
26536;SDS011;14204;51.262;5.488;2022-09-29T10:34:46;19.52;;;8.98;;
26536;SDS011;14204;51.262;5.488;2022-09-29T10:37:38;17.92;;;8.15;;
26536;SDS011;14204;51.262;5.488;2022-09-29T10:42:36;14.38;;;9.00;;
26536;SDS011;14204;51.262;5.488;2022-09-29T10:48:15;19.95;;;10.43;;
26536;SDS011;14204;51.262;5.488;2022-09-29T10:50:54;20.83;;;9.98;;
26536;SDS011;14204;51.262;5.488;2022-09-29T10:53:35;13.75;;;7.50;;
26536;SDS011;14204;51.262;5.488;2022-09-29T10:56:07;14.13;;;7.28;;
26536;SDS011;14204;51.262;5.488;2022-09-29T10:58:42;15.65;;;7.00;;
26536;SDS011;14204;51.262;5.488;2022-09-29T11:01:16;20.40;;;7.85;;
26536;SDS011;14204;51.262;5.488;2022-09-29T11:06:16;16.35;;;7.53;;
26536;SDS011;14204;51.262;5.488;2022-09-29T11:08:57;11.27;;;6.85;;
26536;SDS011;14204;51.262;5.488;2022-09-29T11:11:31;12.55;;;6.90;;
26536;SDS011;14204;51.262;5.488;2022-09-29T11:14:00;13.00;;;6.63;;
26536;SDS011;14204;51.262;5.488;2022-09-29T11:16:35;15.80;;;6.78;;
26536;SDS011;14204;51.262;5.488;2022-09-29T11:19:08;14.98;;;7.35;;
26536;SDS011;14204;51.262;5.488;2022-09-29T11:27:41;14.27;;;6.95;;
26536;SDS011;14204;51.262;5.488;2022-09-29T11:30:29;9.23;;;5.05;;
26536;SDS011;14204;51.262;5.488;2022-09-29T11:33:27;9.02;;;4.25;;
26536;SDS011;14204;51.262;5.488;2022-09-29T11:45:15;4.93;;;2.30;;
26536;SDS011;14204;51.262;5.488;2022-09-29T11:56:05;7.57;;;2.60;;
26536;SDS011;14204;51.262;5.488;2022-09-29T12:02:01;3.25;;;2.35;;
26536;SDS011;14204;51.262;5.488;2022-09-29T12:17:59;3.85;;;2.60;;
26536;SDS011;14204;51.262;5.488;2022-09-29T12:20:36;4.25;;;2.92;;
26536;SDS011;14204;51.262;5.488;2022-09-29T12:23:09;3.75;;;2.50;;
26536;SDS011;14204;51.262;5.488;2022-09-29T12:25:39;3.30;;;2.33;;
26536;SDS011;14204;51.262;5.488;2022-09-29T12:28:17;3.03;;;2.17;;
26536;SDS011;14204;51.262;5.488;2022-09-29T12:30:51;5.07;;;2.38;;
26536;SDS011;14204;51.262;5.488;2022-09-29T12:33:24;2.97;;;2.15;;
26536;SDS011;14204;51.262;5.488;2022-09-29T12:50:39;2.58;;;1.80;;
26536;SDS011;14204;51.262;5.488;2022-09-29T12:56:32;4.70;;;2.58;;
26536;SDS011;14204;51.262;5.488;2022-09-29T12:59:05;2.42;;;1.92;;
26536;SDS011;14204;51.262;5.488;2022-09-29T13:01:48;2.00;;;1.58;;
26536;SDS011;14204;51.262;5.488;2022-09-29T13:04:31;3.28;;;1.75;;
26536;SDS011;14204;51.262;5.488;2022-09-29T13:20:54;6.57;;;2.00;;
26536;SDS011;14204;51.262;5.488;2022-09-29T13:29:15;3.60;;;1.80;;
26536;SDS011;14204;51.262;5.488;2022-09-29T13:31:42;2.25;;;1.40;;
26536;SDS011;14204;51.262;5.488;2022-09-29T13:36:59;2.83;;;1.50;;
26536;SDS011;14204;51.262;5.488;2022-09-29T13:39:42;2.67;;;2.13;;
26536;SDS011;14204;51.262;5.488;2022-09-29T13:42:25;6.10;;;2.33;;
26536;SDS011;14204;51.262;5.488;2022-09-29T13:47:53;4.25;;;2.90;;
26536;SDS011;14204;51.262;5.488;2022-09-29T13:50:40;3.63;;;1.80;;
26536;SDS011;14204;51.262;5.488;2022-09-29T13:58:38;5.18;;;1.92;;
26536;SDS011;14204;51.262;5.488;2022-09-29T14:03:57;3.75;;;1.77;;
26536;SDS011;14204;51.262;5.488;2022-09-29T14:06:25;1.77;;;1.55;;
26536;SDS011;14204;51.262;5.488;2022-09-29T14:14:01;4.00;;;1.73;;
26536;SDS011;14204;51.262;5.488;2022-09-29T14:16:32;5.28;;;1.58;;
26536;SDS011;14204;51.262;5.488;2022-09-29T14:38:09;4.10;;;1.63;;
26536;SDS011;14204;51.262;5.488;2022-09-29T14:40:58;2.85;;;1.73;;
26536;SDS011;14204;51.262;5.488;2022-09-29T15:03:10;1.95;;;1.40;;
26536;SDS011;14204;51.262;5.488;2022-09-29T15:06:25;2.20;;;1.50;;
26536;SDS011;14204;51.262;5.488;2022-09-29T15:08:54;1.48;;;1.38;;
26536;SDS011;14204;51.262;5.488;2022-09-29T15:11:32;2.25;;;1.30;;
26536;SDS011;14204;51.262;5.488;2022-09-29T15:14:02;1.90;;;1.10;;
26536;SDS011;14204;51.262;5.488;2022-09-29T15:30:39;2.72;;;1.30;;
26536;SDS011;14204;51.262;5.488;2022-09-29T15:33:08;6.15;;;1.48;;
26536;SDS011;14204;51.262;5.488;2022-09-29T15:36:00;2.28;;;1.00;;
26536;SDS011;14204;51.262;5.488;2022-09-29T15:38:33;1.83;;;1.10;;
26536;SDS011;14204;51.262;5.488;2022-09-29T15:43:55;7.72;;;1.10;;
26536;SDS011;14204;51.262;5.488;2022-09-29T15:46:23;9.45;;;1.55;;
26536;SDS011;14204;51.262;5.488;2022-09-29T15:51:58;5.57;;;1.15;;
26536;SDS011;14204;51.262;5.488;2022-09-29T15:54:31;6.07;;;1.35;;
26536;SDS011;14204;51.262;5.488;2022-09-29T15:57:03;1.27;;;0.98;;
26536;SDS011;14204;51.262;5.488;2022-09-29T15:59:49;2.50;;;1.27;;
26536;SDS011;14204;51.262;5.488;2022-09-29T16:02:35;2.03;;;1.20;;
26536;SDS011;14204;51.262;5.488;2022-09-29T16:05:06;2.50;;;1.40;;
26536;SDS011;14204;51.262;5.488;2022-09-29T16:07:39;3.63;;;1.30;;
26536;SDS011;14204;51.262;5.488;2022-09-29T16:10:16;2.83;;;1.20;;
26536;SDS011;14204;51.262;5.488;2022-09-29T16:15:25;3.58;;;1.55;;
26536;SDS011;14204;51.262;5.488;2022-09-29T16:18:00;3.67;;;1.80;;
26536;SDS011;14204;51.262;5.488;2022-09-29T16:20:30;2.53;;;1.48;;
26536;SDS011;14204;51.262;5.488;2022-09-29T16:23:04;2.78;;;1.42;;
26536;SDS011;14204;51.262;5.488;2022-09-29T16:28:36;1.90;;;1.60;;
26536;SDS011;14204;51.262;5.488;2022-09-29T16:31:16;2.60;;;1.40;;
26536;SDS011;14204;51.262;5.488;2022-09-29T16:33:45;3.13;;;1.65;;
26536;SDS011;14204;51.262;5.488;2022-09-29T16:38:44;4.32;;;1.15;;
26536;SDS011;14204;51.262;5.488;2022-09-29T16:41:24;3.97;;;1.48;;
26536;SDS011;14204;51.262;5.488;2022-09-29T16:44:13;4.28;;;1.90;;
26536;SDS011;14204;51.262;5.488;2022-09-29T16:49:20;9.55;;;2.13;;
26536;SDS011;14204;51.262;5.488;2022-09-29T16:54:44;5.65;;;2.30;;
26536;SDS011;14204;51.262;5.488;2022-09-29T16:59:47;4.78;;;2.00;;
26536;SDS011;14204;51.262;5.488;2022-09-29T17:02:16;4.60;;;2.13;;
26536;SDS011;14204;51.262;5.488;2022-09-29T17:04:42;5.78;;;2.17;;
26536;SDS011;14204;51.262;5.488;2022-09-29T17:07:14;9.10;;;2.72;;
26536;SDS011;14204;51.262;5.488;2022-09-29T17:09:54;4.97;;;2.33;;
26536;SDS011;14204;51.262;5.488;2022-09-29T17:12:22;8.93;;;2.28;;
26536;SDS011;14204;51.262;5.488;2022-09-29T17:14:49;4.25;;;2.30;;
26536;SDS011;14204;51.262;5.488;2022-09-29T17:17:36;6.05;;;2.13;;
26536;SDS011;14204;51.262;5.488;2022-09-29T17:20:00;4.72;;;1.95;;
26536;SDS011;14204;51.262;5.488;2022-09-29T17:22:32;3.33;;;1.85;;
26536;SDS011;14204;51.262;5.488;2022-09-29T17:25:00;3.78;;;1.38;;
26536;SDS011;14204;51.262;5.488;2022-09-29T17:27:27;5.63;;;1.90;;
26536;SDS011;14204;51.262;5.488;2022-09-29T17:30:13;5.53;;;1.98;;
26536;SDS011;14204;51.262;5.488;2022-09-29T17:32:42;4.75;;;1.90;;
26536;SDS011;14204;51.262;5.488;2022-09-29T17:35:08;3.85;;;1.70;;
26536;SDS011;14204;51.262;5.488;2022-09-29T17:37:36;3.08;;;1.92;;
26536;SDS011;14204;51.262;5.488;2022-09-29T17:40:08;3.88;;;1.70;;
26536;SDS011;14204;51.262;5.488;2022-09-29T17:42:43;4.00;;;2.15;;
26536;SDS011;14204;51.262;5.488;2022-09-29T17:45:11;4.30;;;1.70;;
26536;SDS011;14204;51.262;5.488;2022-09-29T17:47:40;3.72;;;2.00;;
26536;SDS011;14204;51.262;5.488;2022-09-29T17:52:50;3.38;;;1.80;;
26536;SDS011;14204;51.262;5.488;2022-09-29T17:55:17;4.32;;;2.22;;
26536;SDS011;14204;51.262;5.488;2022-09-29T17:57:43;5.75;;;2.20;;
26536;SDS011;14204;51.262;5.488;2022-09-29T18:00:18;3.80;;;2.50;;
26536;SDS011;14204;51.262;5.488;2022-09-29T18:02:47;6.43;;;3.17;;
26536;SDS011;14204;51.262;5.488;2022-09-29T18:05:14;7.28;;;2.60;;
26536;SDS011;14204;51.262;5.488;2022-09-29T18:07:45;8.85;;;4.20;;
26536;SDS011;14204;51.262;5.488;2022-09-29T18:10:19;7.55;;;4.40;;
26536;SDS011;14204;51.262;5.488;2022-09-29T18:12:54;9.35;;;4.10;;
26536;SDS011;14204;51.262;5.488;2022-09-29T18:15:20;4.85;;;3.92;;
26536;SDS011;14204;51.262;5.488;2022-09-29T18:17:46;8.23;;;4.78;;
26536;SDS011;14204;51.262;5.488;2022-09-29T18:22:39;6.30;;;4.40;;
26536;SDS011;14204;51.262;5.488;2022-09-29T18:25:05;7.18;;;5.30;;
26536;SDS011;14204;51.262;5.488;2022-09-29T18:27:32;7.90;;;5.88;;
26536;SDS011;14204;51.262;5.488;2022-09-29T18:29:57;7.75;;;4.68;;
26536;SDS011;14204;51.262;5.488;2022-09-29T18:32:23;7.00;;;4.30;;
26536;SDS011;14204;51.262;5.488;2022-09-29T18:34:48;9.88;;;5.10;;
26536;SDS011;14204;51.262;5.488;2022-09-29T18:37:14;9.23;;;4.82;;
26536;SDS011;14204;51.262;5.488;2022-09-29T18:39:40;5.15;;;4.65;;
26536;SDS011;14204;51.262;5.488;2022-09-29T18:42:07;6.07;;;5.53;;
26536;SDS011;14204;51.262;5.488;2022-09-29T18:44:33;8.05;;;6.07;;
26536;SDS011;14204;51.262;5.488;2022-09-29T18:47:00;18.17;;;14.27;;
26536;SDS011;14204;51.262;5.488;2022-09-29T18:49:26;13.18;;;7.25;;
26536;SDS011;14204;51.262;5.488;2022-09-29T18:51:52;4.07;;;3.65;;
26536;SDS011;14204;51.262;5.488;2022-09-29T18:54:17;4.78;;;3.35;;
26536;SDS011;14204;51.262;5.488;2022-09-29T18:56:43;6.32;;;3.70;;
26536;SDS011;14204;51.262;5.488;2022-09-29T18:59:12;5.47;;;3.30;;
26536;SDS011;14204;51.262;5.488;2022-09-29T19:01:38;7.03;;;3.80;;
26536;SDS011;14204;51.262;5.488;2022-09-29T19:04:04;7.07;;;4.85;;
26536;SDS011;14204;51.262;5.488;2022-09-29T19:06:30;9.73;;;4.18;;
26536;SDS011;14204;51.262;5.488;2022-09-29T19:08:56;7.70;;;4.82;;